sensor_id;sensor_type;location;lat;lon;timestamp;temperature;humidity
73360;DHT22;63092;43.582;19.528;2022-10-16T00:00:31;10.00;91.50
73360;DHT22;63092;43.582;19.528;2022-10-16T00:02:56;10.00;91.70
73360;DHT22;63092;43.582;19.528;2022-10-16T00:05:22;10.00;91.80
73360;DHT22;63092;43.582;19.528;2022-10-16T00:07:48;9.90;92.00
73360;DHT22;63092;43.582;19.528;2022-10-16T00:10:14;9.90;92.10
73360;DHT22;63092;43.582;19.528;2022-10-16T00:12:40;9.70;92.20
73360;DHT22;63092;43.582;19.528;2022-10-16T00:15:06;9.80;92.10
73360;DHT22;63092;43.582;19.528;2022-10-16T00:17:31;9.90;92.20
73360;DHT22;63092;43.582;19.528;2022-10-16T00:19:57;9.80;92.30
73360;DHT22;63092;43.582;19.528;2022-10-16T00:22:23;9.80;92.20
73360;DHT22;63092;43.582;19.528;2022-10-16T00:24:49;9.80;92.20
73360;DHT22;63092;43.582;19.528;2022-10-16T00:27:15;9.80;92.00
73360;DHT22;63092;43.582;19.528;2022-10-16T00:29:42;9.90;91.80
73360;DHT22;63092;43.582;19.528;2022-10-16T00:32:07;9.90;91.80
73360;DHT22;63092;43.582;19.528;2022-10-16T00:34:33;9.90;91.60
73360;DHT22;63092;43.582;19.528;2022-10-16T00:36:59;9.80;91.90
73360;DHT22;63092;43.582;19.528;2022-10-16T00:39:25;9.70;92.30
73360;DHT22;63092;43.582;19.528;2022-10-16T00:41:51;9.70;92.10
73360;DHT22;63092;43.582;19.528;2022-10-16T00:47:27;9.60;92.10
73360;DHT22;63092;43.582;19.528;2022-10-16T00:50:13;9.60;92.20
73360;DHT22;63092;43.582;19.528;2022-10-16T00:52:44;9.50;92.30
73360;DHT22;63092;43.582;19.528;2022-10-16T00:55:11;9.50;92.30
73360;DHT22;63092;43.582;19.528;2022-10-16T00:57:38;9.50;92.10
73360;DHT22;63092;43.582;19.528;2022-10-16T01:00:06;9.50;92.00
73360;DHT22;63092;43.582;19.528;2022-10-16T01:02:32;9.50;92.10
73360;DHT22;63092;43.582;19.528;2022-10-16T01:04:58;9.60;91.80
73360;DHT22;63092;43.582;19.528;2022-10-16T01:07:51;9.60;91.80
73360;DHT22;63092;43.582;19.528;2022-10-16T01:10:39;9.60;91.90
73360;DHT22;63092;43.582;19.528;2022-10-16T01:13:06;9.50;91.90
73360;DHT22;63092;43.582;19.528;2022-10-16T01:15:49;9.50;92.00
73360;DHT22;63092;43.582;19.528;2022-10-16T01:18:23;9.50;92.10
73360;DHT22;63092;43.582;19.528;2022-10-16T01:21:19;9.50;91.90
73360;DHT22;63092;43.582;19.528;2022-10-16T01:26:46;9.50;91.70
73360;DHT22;63092;43.582;19.528;2022-10-16T01:29:24;9.50;91.50
73360;DHT22;63092;43.582;19.528;2022-10-16T01:32:06;9.40;91.80
73360;DHT22;63092;43.582;19.528;2022-10-16T01:34:41;9.40;92.00
73360;DHT22;63092;43.582;19.528;2022-10-16T01:37:15;9.40;92.10
73360;DHT22;63092;43.582;19.528;2022-10-16T01:39:44;9.40;92.20
73360;DHT22;63092;43.582;19.528;2022-10-16T01:42:31;9.30;92.30
73360;DHT22;63092;43.582;19.528;2022-10-16T01:45:00;9.30;92.40
73360;DHT22;63092;43.582;19.528;2022-10-16T01:47:27;9.30;92.50
73360;DHT22;63092;43.582;19.528;2022-10-16T01:49:53;9.30;92.40
73360;DHT22;63092;43.582;19.528;2022-10-16T01:52:23;9.40;92.30
73360;DHT22;63092;43.582;19.528;2022-10-16T01:54:52;9.10;92.60
73360;DHT22;63092;43.582;19.528;2022-10-16T01:57:20;9.40;92.50
73360;DHT22;63092;43.582;19.528;2022-10-16T01:59:50;9.30;92.30
73360;DHT22;63092;43.582;19.528;2022-10-16T02:02:18;9.40;92.30
73360;DHT22;63092;43.582;19.528;2022-10-16T02:04:49;9.40;92.40
73360;DHT22;63092;43.582;19.528;2022-10-16T02:07:17;9.40;92.30
73360;DHT22;63092;43.582;19.528;2022-10-16T02:09:43;9.40;92.40
73360;DHT22;63092;43.582;19.528;2022-10-16T02:12:23;9.50;92.70
73360;DHT22;63092;43.582;19.528;2022-10-16T02:14:50;9.50;92.60
73360;DHT22;63092;43.582;19.528;2022-10-16T02:17:17;9.50;92.40
73360;DHT22;63092;43.582;19.528;2022-10-16T02:19:44;9.60;92.60
73360;DHT22;63092;43.582;19.528;2022-10-16T02:22:30;9.60;92.30
73360;DHT22;63092;43.582;19.528;2022-10-16T02:25:10;9.70;92.30
73360;DHT22;63092;43.582;19.528;2022-10-16T02:30:30;9.70;92.20
73360;DHT22;63092;43.582;19.528;2022-10-16T02:33:00;9.70;92.40
73360;DHT22;63092;43.582;19.528;2022-10-16T02:35:28;9.50;92.70
73360;DHT22;63092;43.582;19.528;2022-10-16T02:37:56;9.50;92.80
73360;DHT22;63092;43.582;19.528;2022-10-16T02:40:22;9.60;92.70
73360;DHT22;63092;43.582;19.528;2022-10-16T02:42:54;9.40;93.10
73360;DHT22;63092;43.582;19.528;2022-10-16T02:45:20;9.40;93.10
73360;DHT22;63092;43.582;19.528;2022-10-16T02:47:46;9.40;93.10
73360;DHT22;63092;43.582;19.528;2022-10-16T02:50:12;9.40;93.10
73360;DHT22;63092;43.582;19.528;2022-10-16T02:52:38;9.40;93.00
73360;DHT22;63092;43.582;19.528;2022-10-16T02:55:04;9.40;93.00
73360;DHT22;63092;43.582;19.528;2022-10-16T02:57:30;9.40;92.90
73360;DHT22;63092;43.582;19.528;2022-10-16T02:59:56;9.30;93.10
73360;DHT22;63092;43.582;19.528;2022-10-16T03:02:22;9.40;93.10
73360;DHT22;63092;43.582;19.528;2022-10-16T03:04:48;9.40;93.10
73360;DHT22;63092;43.582;19.528;2022-10-16T03:07:13;9.40;93.20
73360;DHT22;63092;43.582;19.528;2022-10-16T03:09:39;9.40;92.90
73360;DHT22;63092;43.582;19.528;2022-10-16T03:12:05;9.20;93.10
73360;DHT22;63092;43.582;19.528;2022-10-16T03:14:30;9.10;93.40
73360;DHT22;63092;43.582;19.528;2022-10-16T03:16:56;9.10;93.60
73360;DHT22;63092;43.582;19.528;2022-10-16T03:19:22;9.10;93.50
73360;DHT22;63092;43.582;19.528;2022-10-16T03:21:47;8.90;94.20
73360;DHT22;63092;43.582;19.528;2022-10-16T03:24:13;9.00;93.90
73360;DHT22;63092;43.582;19.528;2022-10-16T03:26:39;8.90;94.00
73360;DHT22;63092;43.582;19.528;2022-10-16T03:29:05;9.00;93.90
73360;DHT22;63092;43.582;19.528;2022-10-16T03:31:30;9.10;93.80
73360;DHT22;63092;43.582;19.528;2022-10-16T03:33:57;9.10;93.60
73360;DHT22;63092;43.582;19.528;2022-10-16T03:36:22;9.10;93.80
73360;DHT22;63092;43.582;19.528;2022-10-16T03:38:48;9.20;93.50
73360;DHT22;63092;43.582;19.528;2022-10-16T03:41:14;9.30;93.40
73360;DHT22;63092;43.582;19.528;2022-10-16T03:43:39;9.30;93.30
73360;DHT22;63092;43.582;19.528;2022-10-16T03:46:05;9.30;93.20
73360;DHT22;63092;43.582;19.528;2022-10-16T03:48:31;9.30;93.20
73360;DHT22;63092;43.582;19.528;2022-10-16T03:50:57;9.30;93.20
73360;DHT22;63092;43.582;19.528;2022-10-16T03:53:23;9.20;92.90
73360;DHT22;63092;43.582;19.528;2022-10-16T03:55:49;9.00;93.30
73360;DHT22;63092;43.582;19.528;2022-10-16T03:58:16;9.10;93.40
73360;DHT22;63092;43.582;19.528;2022-10-16T04:00:42;9.10;93.40
73360;DHT22;63092;43.582;19.528;2022-10-16T04:03:09;9.10;93.40
73360;DHT22;63092;43.582;19.528;2022-10-16T04:05:35;9.20;93.50
73360;DHT22;63092;43.582;19.528;2022-10-16T04:08:00;9.20;93.50
73360;DHT22;63092;43.582;19.528;2022-10-16T04:10:26;9.20;93.50
73360;DHT22;63092;43.582;19.528;2022-10-16T04:12:52;9.20;93.50
73360;DHT22;63092;43.582;19.528;2022-10-16T04:15:20;9.00;93.70
73360;DHT22;63092;43.582;19.528;2022-10-16T04:17:45;9.00;93.80
73360;DHT22;63092;43.582;19.528;2022-10-16T04:20:11;8.90;93.90
73360;DHT22;63092;43.582;19.528;2022-10-16T04:22:37;9.00;93.70
73360;DHT22;63092;43.582;19.528;2022-10-16T04:25:03;8.80;93.70
73360;DHT22;63092;43.582;19.528;2022-10-16T04:27:29;8.90;93.90
73360;DHT22;63092;43.582;19.528;2022-10-16T04:29:57;8.90;93.90
73360;DHT22;63092;43.582;19.528;2022-10-16T04:32:23;9.00;93.90
73360;DHT22;63092;43.582;19.528;2022-10-16T04:34:48;8.90;94.10
73360;DHT22;63092;43.582;19.528;2022-10-16T04:37:14;8.90;94.20
73360;DHT22;63092;43.582;19.528;2022-10-16T04:39:40;9.00;94.00
73360;DHT22;63092;43.582;19.528;2022-10-16T04:42:05;9.00;93.80
73360;DHT22;63092;43.582;19.528;2022-10-16T04:44:31;9.10;93.80
73360;DHT22;63092;43.582;19.528;2022-10-16T04:46:57;9.10;93.80
73360;DHT22;63092;43.582;19.528;2022-10-16T04:49:23;9.00;93.80
73360;DHT22;63092;43.582;19.528;2022-10-16T04:51:48;9.10;93.70
73360;DHT22;63092;43.582;19.528;2022-10-16T04:54:14;9.00;93.50
73360;DHT22;63092;43.582;19.528;2022-10-16T04:56:40;9.00;93.60
73360;DHT22;63092;43.582;19.528;2022-10-16T04:59:13;9.10;93.70
73360;DHT22;63092;43.582;19.528;2022-10-16T05:01:39;9.10;93.60
73360;DHT22;63092;43.582;19.528;2022-10-16T05:04:05;9.00;93.70
73360;DHT22;63092;43.582;19.528;2022-10-16T05:06:30;9.00;93.60
73360;DHT22;63092;43.582;19.528;2022-10-16T05:08:56;9.00;93.50
73360;DHT22;63092;43.582;19.528;2022-10-16T05:11:22;8.90;93.90
73360;DHT22;63092;43.582;19.528;2022-10-16T05:13:47;8.90;93.60
73360;DHT22;63092;43.582;19.528;2022-10-16T05:16:13;8.80;94.00
73360;DHT22;63092;43.582;19.528;2022-10-16T05:18:39;8.90;93.90
73360;DHT22;63092;43.582;19.528;2022-10-16T05:21:04;8.90;93.70
73360;DHT22;63092;43.582;19.528;2022-10-16T05:23:31;9.00;93.50
73360;DHT22;63092;43.582;19.528;2022-10-16T05:25:58;9.00;93.50
73360;DHT22;63092;43.582;19.528;2022-10-16T05:28:25;8.90;93.70
73360;DHT22;63092;43.582;19.528;2022-10-16T05:30:51;8.90;93.80
73360;DHT22;63092;43.582;19.528;2022-10-16T05:33:17;8.90;93.60
73360;DHT22;63092;43.582;19.528;2022-10-16T05:35:43;8.80;93.70
73360;DHT22;63092;43.582;19.528;2022-10-16T05:38:09;8.80;93.80
73360;DHT22;63092;43.582;19.528;2022-10-16T05:40:35;8.80;93.70
73360;DHT22;63092;43.582;19.528;2022-10-16T05:43:00;8.80;93.90
73360;DHT22;63092;43.582;19.528;2022-10-16T05:45:26;8.70;94.20
73360;DHT22;63092;43.582;19.528;2022-10-16T05:47:52;8.80;94.10
73360;DHT22;63092;43.582;19.528;2022-10-16T05:50:18;8.80;94.10
73360;DHT22;63092;43.582;19.528;2022-10-16T05:52:43;8.90;93.90
73360;DHT22;63092;43.582;19.528;2022-10-16T05:55:09;8.90;93.70
73360;DHT22;63092;43.582;19.528;2022-10-16T05:57:35;8.90;93.70
73360;DHT22;63092;43.582;19.528;2022-10-16T06:00:01;8.90;93.60
73360;DHT22;63092;43.582;19.528;2022-10-16T06:02:26;8.90;93.90
73360;DHT22;63092;43.582;19.528;2022-10-16T06:04:52;8.90;93.80
73360;DHT22;63092;43.582;19.528;2022-10-16T06:07:22;8.80;93.80
73360;DHT22;63092;43.582;19.528;2022-10-16T06:09:49;9.00;93.50
73360;DHT22;63092;43.582;19.528;2022-10-16T06:12:15;9.00;93.30
73360;DHT22;63092;43.582;19.528;2022-10-16T06:14:41;8.90;93.60
73360;DHT22;63092;43.582;19.528;2022-10-16T06:17:07;9.00;93.40
73360;DHT22;63092;43.582;19.528;2022-10-16T06:19:32;9.10;93.30
73360;DHT22;63092;43.582;19.528;2022-10-16T06:21:58;9.10;93.10
73360;DHT22;63092;43.582;19.528;2022-10-16T06:24:25;9.20;92.90
73360;DHT22;63092;43.582;19.528;2022-10-16T06:26:50;9.10;93.30
73360;DHT22;63092;43.582;19.528;2022-10-16T06:29:16;9.10;93.30
73360;DHT22;63092;43.582;19.528;2022-10-16T06:31:42;9.10;93.20
73360;DHT22;63092;43.582;19.528;2022-10-16T06:34:09;9.00;93.30
73360;DHT22;63092;43.582;19.528;2022-10-16T06:36:37;9.10;93.50
73360;DHT22;63092;43.582;19.528;2022-10-16T06:39:04;9.00;93.40
73360;DHT22;63092;43.582;19.528;2022-10-16T06:41:31;9.10;93.40
73360;DHT22;63092;43.582;19.528;2022-10-16T06:43:56;9.10;93.60
73360;DHT22;63092;43.582;19.528;2022-10-16T06:46:23;9.10;93.30
73360;DHT22;63092;43.582;19.528;2022-10-16T06:48:50;9.20;93.30
73360;DHT22;63092;43.582;19.528;2022-10-16T06:51:20;9.30;93.00
73360;DHT22;63092;43.582;19.528;2022-10-16T06:53:51;9.30;92.70
73360;DHT22;63092;43.582;19.528;2022-10-16T06:56:27;9.30;92.70
73360;DHT22;63092;43.582;19.528;2022-10-16T06:58:53;9.40;92.60
73360;DHT22;63092;43.582;19.528;2022-10-16T07:01:22;9.50;92.60
73360;DHT22;63092;43.582;19.528;2022-10-16T07:03:49;9.60;92.40
73360;DHT22;63092;43.582;19.528;2022-10-16T07:06:17;9.70;92.50
73360;DHT22;63092;43.582;19.528;2022-10-16T07:08:45;9.70;92.40
73360;DHT22;63092;43.582;19.528;2022-10-16T07:11:16;9.80;92.20
73360;DHT22;63092;43.582;19.528;2022-10-16T07:13:43;9.90;91.90
73360;DHT22;63092;43.582;19.528;2022-10-16T07:16:13;9.80;92.30
73360;DHT22;63092;43.582;19.528;2022-10-16T07:18:39;10.00;92.00
73360;DHT22;63092;43.582;19.528;2022-10-16T07:21:06;9.90;92.20
73360;DHT22;63092;43.582;19.528;2022-10-16T07:23:32;10.00;92.00
73360;DHT22;63092;43.582;19.528;2022-10-16T07:25:58;9.90;92.10
73360;DHT22;63092;43.582;19.528;2022-10-16T07:28:24;10.00;91.90
73360;DHT22;63092;43.582;19.528;2022-10-16T07:30:50;10.20;91.50
73360;DHT22;63092;43.582;19.528;2022-10-16T07:33:16;10.30;91.30
73360;DHT22;63092;43.582;19.528;2022-10-16T07:36:07;10.40;91.30
73360;DHT22;63092;43.582;19.528;2022-10-16T07:38:33;10.30;91.30
73360;DHT22;63092;43.582;19.528;2022-10-16T07:41:03;10.20;91.50
73360;DHT22;63092;43.582;19.528;2022-10-16T07:43:29;10.20;91.60
73360;DHT22;63092;43.582;19.528;2022-10-16T07:45:55;9.80;91.90
73360;DHT22;63092;43.582;19.528;2022-10-16T07:48:22;9.90;92.30
73360;DHT22;63092;43.582;19.528;2022-10-16T07:50:48;9.90;92.30
73360;DHT22;63092;43.582;19.528;2022-10-16T07:53:14;9.60;92.80
73360;DHT22;63092;43.582;19.528;2022-10-16T07:55:40;9.90;92.60
73360;DHT22;63092;43.582;19.528;2022-10-16T07:58:06;10.00;92.60
73360;DHT22;63092;43.582;19.528;2022-10-16T08:00:32;9.90;92.50
73360;DHT22;63092;43.582;19.528;2022-10-16T08:02:58;10.10;92.40
73360;DHT22;63092;43.582;19.528;2022-10-16T08:05:31;9.80;93.00
73360;DHT22;63092;43.582;19.528;2022-10-16T08:07:57;10.10;92.70
73360;DHT22;63092;43.582;19.528;2022-10-16T08:10:25;10.20;92.60
73360;DHT22;63092;43.582;19.528;2022-10-16T08:12:52;10.30;92.50
73360;DHT22;63092;43.582;19.528;2022-10-16T08:15:18;10.10;92.50
73360;DHT22;63092;43.582;19.528;2022-10-16T08:17:44;10.20;92.60
73360;DHT22;63092;43.582;19.528;2022-10-16T08:20:10;10.40;92.50
73360;DHT22;63092;43.582;19.528;2022-10-16T08:22:36;10.20;92.80
73360;DHT22;63092;43.582;19.528;2022-10-16T08:25:02;10.40;92.40
73360;DHT22;63092;43.582;19.528;2022-10-16T08:27:32;10.30;92.30
73360;DHT22;63092;43.582;19.528;2022-10-16T08:29:57;10.60;92.20
73360;DHT22;63092;43.582;19.528;2022-10-16T08:32:23;10.70;92.10
73360;DHT22;63092;43.582;19.528;2022-10-16T08:34:49;10.90;91.70
73360;DHT22;63092;43.582;19.528;2022-10-16T08:37:15;10.70;91.80
73360;DHT22;63092;43.582;19.528;2022-10-16T08:39:40;10.80;91.80
73360;DHT22;63092;43.582;19.528;2022-10-16T08:50:28;11.20;91.00
73360;DHT22;63092;43.582;19.528;2022-10-16T08:52:55;11.20;90.90
73360;DHT22;63092;43.582;19.528;2022-10-16T08:55:37;11.40;90.90
73360;DHT22;63092;43.582;19.528;2022-10-16T08:58:20;11.50;90.90
73360;DHT22;63092;43.582;19.528;2022-10-16T09:00:50;11.70;90.70
73360;DHT22;63092;43.582;19.528;2022-10-16T09:03:33;11.90;90.30
73360;DHT22;63092;43.582;19.528;2022-10-16T09:12:12;12.20;90.00
73360;DHT22;63092;43.582;19.528;2022-10-16T09:23:25;12.80;88.50
73360;DHT22;63092;43.582;19.528;2022-10-16T09:25:53;13.00;88.40
73360;DHT22;63092;43.582;19.528;2022-10-16T09:28:19;13.10;87.30
73360;DHT22;63092;43.582;19.528;2022-10-16T09:30:46;13.10;87.60
73360;DHT22;63092;43.582;19.528;2022-10-16T09:33:14;13.30;87.80
73360;DHT22;63092;43.582;19.528;2022-10-16T09:35:47;13.40;87.50
73360;DHT22;63092;43.582;19.528;2022-10-16T09:38:31;13.50;86.00
73360;DHT22;63092;43.582;19.528;2022-10-16T09:40:59;13.70;86.20
73360;DHT22;63092;43.582;19.528;2022-10-16T09:43:49;13.70;85.10
73360;DHT22;63092;43.582;19.528;2022-10-16T09:46:34;13.90;85.00
73360;DHT22;63092;43.582;19.528;2022-10-16T09:49:18;14.00;84.50
73360;DHT22;63092;43.582;19.528;2022-10-16T09:51:45;14.10;84.00
73360;DHT22;63092;43.582;19.528;2022-10-16T09:54:17;14.30;83.90
73360;DHT22;63092;43.582;19.528;2022-10-16T09:56:43;14.40;83.60
73360;DHT22;63092;43.582;19.528;2022-10-16T09:59:16;14.50;83.70
73360;DHT22;63092;43.582;19.528;2022-10-16T10:01:50;14.60;82.80
73360;DHT22;63092;43.582;19.528;2022-10-16T10:04:18;14.80;82.60
73360;DHT22;63092;43.582;19.528;2022-10-16T10:06:49;14.70;82.50
73360;DHT22;63092;43.582;19.528;2022-10-16T10:09:20;14.80;81.70
73360;DHT22;63092;43.582;19.528;2022-10-16T10:14:42;15.20;80.20
73360;DHT22;63092;43.582;19.528;2022-10-16T10:17:15;15.30;80.00
73360;DHT22;63092;43.582;19.528;2022-10-16T10:19:44;15.40;79.50
73360;DHT22;63092;43.582;19.528;2022-10-16T10:22:18;15.60;78.40
73360;DHT22;63092;43.582;19.528;2022-10-16T10:24:59;15.60;77.90
73360;DHT22;63092;43.582;19.528;2022-10-16T10:27:54;15.80;77.60
73360;DHT22;63092;43.582;19.528;2022-10-16T10:39:01;16.30;76.60
73360;DHT22;63092;43.582;19.528;2022-10-16T10:46:50;16.70;77.90
73360;DHT22;63092;43.582;19.528;2022-10-16T10:49:24;16.80;77.10
73360;DHT22;63092;43.582;19.528;2022-10-16T10:52:22;16.90;76.70
73360;DHT22;63092;43.582;19.528;2022-10-16T11:00:16;17.20;75.50
73360;DHT22;63092;43.582;19.528;2022-10-16T11:10:28;17.70;75.10
73360;DHT22;63092;43.582;19.528;2022-10-16T11:15:43;17.90;74.50
73360;DHT22;63092;43.582;19.528;2022-10-16T11:19:08;18.00;73.90
73360;DHT22;63092;43.582;19.528;2022-10-16T11:21:13;18.10;73.70
73360;DHT22;63092;43.582;19.528;2022-10-16T11:24:03;18.30;73.30
73360;DHT22;63092;43.582;19.528;2022-10-16T11:26:40;18.40;72.30
73360;DHT22;63092;43.582;19.528;2022-10-16T11:29:25;18.50;71.40
73360;DHT22;63092;43.582;19.528;2022-10-16T11:32:05;18.60;71.10
73360;DHT22;63092;43.582;19.528;2022-10-16T11:34:36;18.60;71.40
73360;DHT22;63092;43.582;19.528;2022-10-16T11:37:11;18.80;71.80
73360;DHT22;63092;43.582;19.528;2022-10-16T11:39:38;18.80;71.20
73360;DHT22;63092;43.582;19.528;2022-10-16T11:42:22;18.90;71.00
73360;DHT22;63092;43.582;19.528;2022-10-16T11:47:44;19.00;70.00
73360;DHT22;63092;43.582;19.528;2022-10-16T11:50:43;19.10;69.30
73360;DHT22;63092;43.582;19.528;2022-10-16T11:56:05;19.20;67.60
73360;DHT22;63092;43.582;19.528;2022-10-16T12:01:52;19.40;67.50
73360;DHT22;63092;43.582;19.528;2022-10-16T12:06:41;19.50;67.10
73360;DHT22;63092;43.582;19.528;2022-10-16T12:09:19;19.60;67.10
73360;DHT22;63092;43.582;19.528;2022-10-16T12:11:47;19.60;66.30
73360;DHT22;63092;43.582;19.528;2022-10-16T12:16:59;19.70;66.00
73360;DHT22;63092;43.582;19.528;2022-10-16T12:19:28;19.80;65.60
73360;DHT22;63092;43.582;19.528;2022-10-16T12:22:00;19.80;65.30
73360;DHT22;63092;43.582;19.528;2022-10-16T12:24:33;19.90;65.00
73360;DHT22;63092;43.582;19.528;2022-10-16T12:27:00;19.90;64.30
73360;DHT22;63092;43.582;19.528;2022-10-16T12:35:16;20.00;62.90
73360;DHT22;63092;43.582;19.528;2022-10-16T12:37:42;20.10;61.60
73360;DHT22;63092;43.582;19.528;2022-10-16T12:40:27;20.10;61.50
73360;DHT22;63092;43.582;19.528;2022-10-16T12:42:53;20.20;60.40
73360;DHT22;63092;43.582;19.528;2022-10-16T12:45:33;20.30;58.80
73360;DHT22;63092;43.582;19.528;2022-10-16T12:48:01;20.30;59.10
73360;DHT22;63092;43.582;19.528;2022-10-16T12:50:35;20.30;58.30
73360;DHT22;63092;43.582;19.528;2022-10-16T12:53:03;20.40;56.50
73360;DHT22;63092;43.582;19.528;2022-10-16T12:55:40;20.50;55.40
73360;DHT22;63092;43.582;19.528;2022-10-16T12:58:20;20.50;54.70
73360;DHT22;63092;43.582;19.528;2022-10-16T13:01:11;20.60;52.80
73360;DHT22;63092;43.582;19.528;2022-10-16T13:04:02;20.70;53.00
73360;DHT22;63092;43.582;19.528;2022-10-16T13:24:57;20.90;44.40
73360;DHT22;63092;43.582;19.528;2022-10-16T13:28:03;20.90;44.70
73360;DHT22;63092;43.582;19.528;2022-10-16T13:30:30;20.90;45.20
73360;DHT22;63092;43.582;19.528;2022-10-16T13:33:01;21.00;46.80
73360;DHT22;63092;43.582;19.528;2022-10-16T13:35:31;21.00;47.60
73360;DHT22;63092;43.582;19.528;2022-10-16T13:38:31;21.00;48.30
73360;DHT22;63092;43.582;19.528;2022-10-16T13:43:20;20.90;50.40
73360;DHT22;63092;43.582;19.528;2022-10-16T13:48:23;20.90;52.20
73360;DHT22;63092;43.582;19.528;2022-10-16T13:51:00;20.90;53.00
73360;DHT22;63092;43.582;19.528;2022-10-16T13:53:26;20.80;53.30
73360;DHT22;63092;43.582;19.528;2022-10-16T13:55:51;20.80;53.70
73360;DHT22;63092;43.582;19.528;2022-10-16T13:58:17;20.80;53.90
73360;DHT22;63092;43.582;19.528;2022-10-16T14:00:59;20.80;54.80
73360;DHT22;63092;43.582;19.528;2022-10-16T14:03:26;20.70;55.40
73360;DHT22;63092;43.582;19.528;2022-10-16T14:05:55;20.70;56.40
73360;DHT22;63092;43.582;19.528;2022-10-16T14:08:22;20.60;56.40
73360;DHT22;63092;43.582;19.528;2022-10-16T14:10:52;20.50;56.80
73360;DHT22;63092;43.582;19.528;2022-10-16T14:15:55;20.40;58.10
73360;DHT22;63092;43.582;19.528;2022-10-16T14:18:25;20.40;58.40
73360;DHT22;63092;43.582;19.528;2022-10-16T14:20:52;20.20;58.30
73360;DHT22;63092;43.582;19.528;2022-10-16T14:23:20;20.10;59.20
73360;DHT22;63092;43.582;19.528;2022-10-16T14:25:46;19.90;59.80
73360;DHT22;63092;43.582;19.528;2022-10-16T14:28:17;19.80;60.40
73360;DHT22;63092;43.582;19.528;2022-10-16T14:31:00;19.80;61.30
73360;DHT22;63092;43.582;19.528;2022-10-16T14:38:30;19.40;62.70
73360;DHT22;63092;43.582;19.528;2022-10-16T14:40:58;19.40;62.80
73360;DHT22;63092;43.582;19.528;2022-10-16T14:43:41;19.30;63.00
73360;DHT22;63092;43.582;19.528;2022-10-16T14:46:17;19.20;63.80
73360;DHT22;63092;43.582;19.528;2022-10-16T14:48:45;19.10;64.60
73360;DHT22;63092;43.582;19.528;2022-10-16T14:51:14;19.10;65.00
73360;DHT22;63092;43.582;19.528;2022-10-16T14:53:41;19.00;66.10
73360;DHT22;63092;43.582;19.528;2022-10-16T14:56:08;18.90;66.40
73360;DHT22;63092;43.582;19.528;2022-10-16T14:58:40;18.80;66.40
73360;DHT22;63092;43.582;19.528;2022-10-16T15:01:06;18.80;68.40
73360;DHT22;63092;43.582;19.528;2022-10-16T15:03:34;18.70;70.30
73360;DHT22;63092;43.582;19.528;2022-10-16T15:05:59;18.60;70.80
73360;DHT22;63092;43.582;19.528;2022-10-16T15:08:25;18.60;70.60
73360;DHT22;63092;43.582;19.528;2022-10-16T15:10:51;18.50;70.90
73360;DHT22;63092;43.582;19.528;2022-10-16T15:13:17;18.50;71.90
73360;DHT22;63092;43.582;19.528;2022-10-16T15:15:46;18.30;71.80
73360;DHT22;63092;43.582;19.528;2022-10-16T15:18:14;18.20;71.90
73360;DHT22;63092;43.582;19.528;2022-10-16T15:20:47;18.20;72.50
73360;DHT22;63092;43.582;19.528;2022-10-16T15:23:19;18.20;73.60
73360;DHT22;63092;43.582;19.528;2022-10-16T15:28:16;18.20;74.90
73360;DHT22;63092;43.582;19.528;2022-10-16T15:30:42;18.10;75.00
73360;DHT22;63092;43.582;19.528;2022-10-16T15:33:28;18.10;75.00
73360;DHT22;63092;43.582;19.528;2022-10-16T15:35:58;18.00;74.90
73360;DHT22;63092;43.582;19.528;2022-10-16T15:38:25;17.90;75.40
73360;DHT22;63092;43.582;19.528;2022-10-16T15:40:51;17.80;77.00
73360;DHT22;63092;43.582;19.528;2022-10-16T15:43:17;17.80;77.40
73360;DHT22;63092;43.582;19.528;2022-10-16T15:45:44;17.80;77.20
73360;DHT22;63092;43.582;19.528;2022-10-16T15:48:17;17.80;77.30
73360;DHT22;63092;43.582;19.528;2022-10-16T15:50:43;17.70;77.50
73360;DHT22;63092;43.582;19.528;2022-10-16T15:53:09;17.70;77.40
73360;DHT22;63092;43.582;19.528;2022-10-16T15:55:34;17.70;78.10
73360;DHT22;63092;43.582;19.528;2022-10-16T15:58:03;17.60;78.50
73360;DHT22;63092;43.582;19.528;2022-10-16T16:00:29;17.50;78.30
73360;DHT22;63092;43.582;19.528;2022-10-16T16:02:55;17.50;78.80
73360;DHT22;63092;43.582;19.528;2022-10-16T16:05:22;17.40;79.20
73360;DHT22;63092;43.582;19.528;2022-10-16T16:07:49;17.40;79.80
73360;DHT22;63092;43.582;19.528;2022-10-16T16:10:15;17.30;79.50
73360;DHT22;63092;43.582;19.528;2022-10-16T16:12:41;17.20;79.50
73360;DHT22;63092;43.582;19.528;2022-10-16T16:15:09;17.20;79.20
73360;DHT22;63092;43.582;19.528;2022-10-16T16:17:36;17.10;79.50
73360;DHT22;63092;43.582;19.528;2022-10-16T16:20:03;17.10;79.90
73360;DHT22;63092;43.582;19.528;2022-10-16T16:22:29;17.00;79.90
73360;DHT22;63092;43.582;19.528;2022-10-16T16:24:55;17.00;79.60
73360;DHT22;63092;43.582;19.528;2022-10-16T16:27:21;16.90;79.50
73360;DHT22;63092;43.582;19.528;2022-10-16T16:29:47;16.80;80.00
73360;DHT22;63092;43.582;19.528;2022-10-16T16:32:13;16.80;80.00
73360;DHT22;63092;43.582;19.528;2022-10-16T16:34:38;16.80;80.20
73360;DHT22;63092;43.582;19.528;2022-10-16T16:37:04;16.80;80.30
73360;DHT22;63092;43.582;19.528;2022-10-16T16:39:30;16.70;80.10
73360;DHT22;63092;43.582;19.528;2022-10-16T16:41:57;16.70;80.20
73360;DHT22;63092;43.582;19.528;2022-10-16T16:44:24;16.60;80.50
73360;DHT22;63092;43.582;19.528;2022-10-16T16:46:50;16.60;80.50
73360;DHT22;63092;43.582;19.528;2022-10-16T16:49:16;16.50;80.40
73360;DHT22;63092;43.582;19.528;2022-10-16T16:51:42;16.50;80.80
73360;DHT22;63092;43.582;19.528;2022-10-16T16:54:10;16.40;81.20
73360;DHT22;63092;43.582;19.528;2022-10-16T16:56:37;16.40;81.00
73360;DHT22;63092;43.582;19.528;2022-10-16T16:59:03;16.30;81.00
73360;DHT22;63092;43.582;19.528;2022-10-16T17:01:29;16.30;81.30
73360;DHT22;63092;43.582;19.528;2022-10-16T17:03:58;16.30;81.50
73360;DHT22;63092;43.582;19.528;2022-10-16T17:06:27;16.20;81.30
73360;DHT22;63092;43.582;19.528;2022-10-16T17:08:53;16.20;81.30
73360;DHT22;63092;43.582;19.528;2022-10-16T17:11:24;16.20;81.40
73360;DHT22;63092;43.582;19.528;2022-10-16T17:13:52;16.10;81.60
73360;DHT22;63092;43.582;19.528;2022-10-16T17:16:20;16.10;81.70
73360;DHT22;63092;43.582;19.528;2022-10-16T17:18:46;16.00;81.80
73360;DHT22;63092;43.582;19.528;2022-10-16T17:21:12;16.00;82.30
73360;DHT22;63092;43.582;19.528;2022-10-16T17:23:38;16.00;82.60
73360;DHT22;63092;43.582;19.528;2022-10-16T17:26:11;16.00;82.70
73360;DHT22;63092;43.582;19.528;2022-10-16T17:28:37;15.90;83.10
73360;DHT22;63092;43.582;19.528;2022-10-16T17:31:10;15.90;83.50
73360;DHT22;63092;43.582;19.528;2022-10-16T17:33:36;15.90;84.20